sensor_id;sensor_type;location;lat;lon;timestamp;temperature;humidity
24260;DHT22;12384;48.112;18.418;2022-11-20T00:01:32;1.90;99.90
24260;DHT22;12384;48.112;18.418;2022-11-20T00:04:01;1.90;99.90
24260;DHT22;12384;48.112;18.418;2022-11-20T00:06:30;1.90;99.90
24260;DHT22;12384;48.112;18.418;2022-11-20T00:09:00;1.90;99.90
24260;DHT22;12384;48.112;18.418;2022-11-20T00:11:30;1.90;99.90
24260;DHT22;12384;48.112;18.418;2022-11-20T00:14:00;2.00;99.90
24260;DHT22;12384;48.112;18.418;2022-11-20T00:16:31;1.90;99.90
24260;DHT22;12384;48.112;18.418;2022-11-20T00:19:00;1.90;99.90
24260;DHT22;12384;48.112;18.418;2022-11-20T00:21:29;2.00;99.90
24260;DHT22;12384;48.112;18.418;2022-11-20T00:23:59;2.00;99.90
24260;DHT22;12384;48.112;18.418;2022-11-20T00:26:28;2.00;99.90
24260;DHT22;12384;48.112;18.418;2022-11-20T00:28:58;2.00;99.90
24260;DHT22;12384;48.112;18.418;2022-11-20T00:31:27;2.00;99.90
24260;DHT22;12384;48.112;18.418;2022-11-20T00:33:56;2.00;99.90
24260;DHT22;12384;48.112;18.418;2022-11-20T00:36:27;2.00;99.90
24260;DHT22;12384;48.112;18.418;2022-11-20T00:38:56;2.00;99.90
24260;DHT22;12384;48.112;18.418;2022-11-20T00:41:28;2.00;99.90
24260;DHT22;12384;48.112;18.418;2022-11-20T00:43:56;2.00;99.90
24260;DHT22;12384;48.112;18.418;2022-11-20T00:46:26;2.00;99.90
24260;DHT22;12384;48.112;18.418;2022-11-20T00:48:55;2.00;99.90
24260;DHT22;12384;48.112;18.418;2022-11-20T00:51:24;1.90;99.90
24260;DHT22;12384;48.112;18.418;2022-11-20T00:53:55;1.90;99.90
24260;DHT22;12384;48.112;18.418;2022-11-20T00:56:23;1.90;99.90
24260;DHT22;12384;48.112;18.418;2022-11-20T00:58:53;1.80;99.90
24260;DHT22;12384;48.112;18.418;2022-11-20T01:01:24;1.80;99.90
24260;DHT22;12384;48.112;18.418;2022-11-20T01:03:54;1.80;99.90
24260;DHT22;12384;48.112;18.418;2022-11-20T01:06:25;1.80;99.90
24260;DHT22;12384;48.112;18.418;2022-11-20T01:08:55;1.80;99.90
24260;DHT22;12384;48.112;18.418;2022-11-20T01:11:25;1.80;99.90
24260;DHT22;12384;48.112;18.418;2022-11-20T01:13:56;1.70;99.90
24260;DHT22;12384;48.112;18.418;2022-11-20T01:16:27;1.70;99.90
24260;DHT22;12384;48.112;18.418;2022-11-20T01:18:58;1.80;99.90
24260;DHT22;12384;48.112;18.418;2022-11-20T01:21:28;1.80;99.90
24260;DHT22;12384;48.112;18.418;2022-11-20T01:23:57;1.80;99.90
24260;DHT22;12384;48.112;18.418;2022-11-20T01:26:27;1.80;99.90
24260;DHT22;12384;48.112;18.418;2022-11-20T01:28:59;1.80;99.90
24260;DHT22;12384;48.112;18.418;2022-11-20T01:31:29;1.80;99.90
24260;DHT22;12384;48.112;18.418;2022-11-20T01:33:59;1.80;99.90
24260;DHT22;12384;48.112;18.418;2022-11-20T01:36:29;1.80;99.90
24260;DHT22;12384;48.112;18.418;2022-11-20T01:38:59;1.80;99.90
24260;DHT22;12384;48.112;18.418;2022-11-20T01:41:32;1.80;99.90
24260;DHT22;12384;48.112;18.418;2022-11-20T01:44:18;1.80;99.90
24260;DHT22;12384;48.112;18.418;2022-11-20T01:46:53;1.80;99.90
24260;DHT22;12384;48.112;18.418;2022-11-20T01:49:26;1.80;99.90
24260;DHT22;12384;48.112;18.418;2022-11-20T01:51:58;1.80;99.90
24260;DHT22;12384;48.112;18.418;2022-11-20T01:54:30;1.80;99.90
24260;DHT22;12384;48.112;18.418;2022-11-20T01:57:00;1.80;99.90
24260;DHT22;12384;48.112;18.418;2022-11-20T01:59:31;1.80;99.90
24260;DHT22;12384;48.112;18.418;2022-11-20T02:01:59;1.80;99.90
24260;DHT22;12384;48.112;18.418;2022-11-20T02:04:28;1.80;99.90
24260;DHT22;12384;48.112;18.418;2022-11-20T02:06:59;1.90;99.90
24260;DHT22;12384;48.112;18.418;2022-11-20T02:09:28;1.90;99.90
24260;DHT22;12384;48.112;18.418;2022-11-20T02:11:57;1.90;99.90
24260;DHT22;12384;48.112;18.418;2022-11-20T02:14:27;1.90;99.90
24260;DHT22;12384;48.112;18.418;2022-11-20T02:16:56;1.90;99.90
24260;DHT22;12384;48.112;18.418;2022-11-20T02:19:27;1.90;99.90
24260;DHT22;12384;48.112;18.418;2022-11-20T02:22:02;1.90;99.90
24260;DHT22;12384;48.112;18.418;2022-11-20T02:24:34;1.90;99.90
24260;DHT22;12384;48.112;18.418;2022-11-20T02:27:06;1.90;99.90
24260;DHT22;12384;48.112;18.418;2022-11-20T02:29:38;1.90;99.90
24260;DHT22;12384;48.112;18.418;2022-11-20T02:32:18;1.90;99.90
24260;DHT22;12384;48.112;18.418;2022-11-20T02:34:46;1.90;99.90
24260;DHT22;12384;48.112;18.418;2022-11-20T02:37:15;1.90;99.90
24260;DHT22;12384;48.112;18.418;2022-11-20T02:39:47;1.90;99.90
24260;DHT22;12384;48.112;18.418;2022-11-20T02:42:16;1.90;99.90
24260;DHT22;12384;48.112;18.418;2022-11-20T02:44:44;1.90;99.90
24260;DHT22;12384;48.112;18.418;2022-11-20T02:47:13;1.90;99.90
24260;DHT22;12384;48.112;18.418;2022-11-20T02:49:41;1.90;99.90
24260;DHT22;12384;48.112;18.418;2022-11-20T02:52:09;1.90;99.90
24260;DHT22;12384;48.112;18.418;2022-11-20T02:54:38;1.90;99.90
24260;DHT22;12384;48.112;18.418;2022-11-20T02:57:07;1.90;99.90
24260;DHT22;12384;48.112;18.418;2022-11-20T02:59:36;2.00;99.90
24260;DHT22;12384;48.112;18.418;2022-11-20T03:02:04;2.00;99.90
24260;DHT22;12384;48.112;18.418;2022-11-20T03:04:33;2.00;99.90
24260;DHT22;12384;48.112;18.418;2022-11-20T03:07:01;2.00;99.90
24260;DHT22;12384;48.112;18.418;2022-11-20T03:09:29;2.00;99.90
24260;DHT22;12384;48.112;18.418;2022-11-20T03:11:58;2.00;99.90
24260;DHT22;12384;48.112;18.418;2022-11-20T03:14:27;2.00;99.90
24260;DHT22;12384;48.112;18.418;2022-11-20T03:16:56;2.00;99.90
24260;DHT22;12384;48.112;18.418;2022-11-20T03:19:24;2.00;99.90
24260;DHT22;12384;48.112;18.418;2022-11-20T03:21:52;2.00;99.90
24260;DHT22;12384;48.112;18.418;2022-11-20T03:24:21;2.10;99.90
24260;DHT22;12384;48.112;18.418;2022-11-20T03:26:49;2.00;99.90
24260;DHT22;12384;48.112;18.418;2022-11-20T03:29:17;2.00;99.90
24260;DHT22;12384;48.112;18.418;2022-11-20T03:31:48;2.00;99.90
24260;DHT22;12384;48.112;18.418;2022-11-20T03:34:16;2.00;99.90
24260;DHT22;12384;48.112;18.418;2022-11-20T03:36:45;2.00;99.90
24260;DHT22;12384;48.112;18.418;2022-11-20T03:39:13;2.00;99.90
24260;DHT22;12384;48.112;18.418;2022-11-20T03:41:42;2.00;99.90
24260;DHT22;12384;48.112;18.418;2022-11-20T03:44:11;2.00;99.90
24260;DHT22;12384;48.112;18.418;2022-11-20T03:46:39;2.00;99.90
24260;DHT22;12384;48.112;18.418;2022-11-20T03:49:09;2.00;99.90
24260;DHT22;12384;48.112;18.418;2022-11-20T03:51:37;2.00;99.90
24260;DHT22;12384;48.112;18.418;2022-11-20T03:54:07;2.00;99.90
24260;DHT22;12384;48.112;18.418;2022-11-20T03:56:37;2.00;99.90
24260;DHT22;12384;48.112;18.418;2022-11-20T03:59:06;2.00;99.90
24260;DHT22;12384;48.112;18.418;2022-11-20T04:01:36;2.00;99.90
24260;DHT22;12384;48.112;18.418;2022-11-20T04:04:05;2.00;99.90
24260;DHT22;12384;48.112;18.418;2022-11-20T04:06:37;2.00;99.90
24260;DHT22;12384;48.112;18.418;2022-11-20T04:09:06;2.00;99.90
24260;DHT22;12384;48.112;18.418;2022-11-20T04:11:38;2.00;99.90
24260;DHT22;12384;48.112;18.418;2022-11-20T04:14:14;2.00;99.90
24260;DHT22;12384;48.112;18.418;2022-11-20T04:16:42;2.00;99.90
24260;DHT22;12384;48.112;18.418;2022-11-20T04:19:13;2.00;99.90
24260;DHT22;12384;48.112;18.418;2022-11-20T04:21:43;2.00;99.90
24260;DHT22;12384;48.112;18.418;2022-11-20T04:24:12;2.00;99.90
24260;DHT22;12384;48.112;18.418;2022-11-20T04:26:40;2.00;99.90
24260;DHT22;12384;48.112;18.418;2022-11-20T04:29:11;2.00;99.90
24260;DHT22;12384;48.112;18.418;2022-11-20T04:31:39;2.00;99.90
24260;DHT22;12384;48.112;18.418;2022-11-20T04:34:10;2.00;99.90
24260;DHT22;12384;48.112;18.418;2022-11-20T04:36:39;2.00;99.90
24260;DHT22;12384;48.112;18.418;2022-11-20T04:39:14;2.00;99.90
24260;DHT22;12384;48.112;18.418;2022-11-20T04:41:44;2.10;99.90
24260;DHT22;12384;48.112;18.418;2022-11-20T04:44:12;2.10;99.90
24260;DHT22;12384;48.112;18.418;2022-11-20T04:46:41;2.10;99.90
24260;DHT22;12384;48.112;18.418;2022-11-20T04:49:10;2.10;99.90
24260;DHT22;12384;48.112;18.418;2022-11-20T04:51:39;2.20;99.90
24260;DHT22;12384;48.112;18.418;2022-11-20T04:54:08;2.20;99.90
24260;DHT22;12384;48.112;18.418;2022-11-20T04:56:38;2.20;99.90
24260;DHT22;12384;48.112;18.418;2022-11-20T04:59:06;2.20;99.90
24260;DHT22;12384;48.112;18.418;2022-11-20T05:01:35;2.20;99.90
24260;DHT22;12384;48.112;18.418;2022-11-20T05:04:03;2.20;99.90
24260;DHT22;12384;48.112;18.418;2022-11-20T05:06:32;2.20;99.90
24260;DHT22;12384;48.112;18.418;2022-11-20T05:09:01;2.20;99.90
24260;DHT22;12384;48.112;18.418;2022-11-20T05:11:29;2.20;99.90
24260;DHT22;12384;48.112;18.418;2022-11-20T05:14:00;2.20;99.90
24260;DHT22;12384;48.112;18.418;2022-11-20T05:16:28;2.20;99.90
24260;DHT22;12384;48.112;18.418;2022-11-20T05:18:57;2.20;99.90
24260;DHT22;12384;48.112;18.418;2022-11-20T05:21:25;2.20;99.90
24260;DHT22;12384;48.112;18.418;2022-11-20T05:23:54;2.20;99.90
24260;DHT22;12384;48.112;18.418;2022-11-20T05:26:22;2.20;99.90
24260;DHT22;12384;48.112;18.418;2022-11-20T05:28:51;2.20;99.90
24260;DHT22;12384;48.112;18.418;2022-11-20T05:31:23;2.20;99.90
24260;DHT22;12384;48.112;18.418;2022-11-20T05:33:55;2.30;99.90
24260;DHT22;12384;48.112;18.418;2022-11-20T05:36:24;2.30;99.90
24260;DHT22;12384;48.112;18.418;2022-11-20T05:38:52;2.30;99.90
24260;DHT22;12384;48.112;18.418;2022-11-20T05:41:27;2.30;99.90
24260;DHT22;12384;48.112;18.418;2022-11-20T05:43:56;2.30;99.90
24260;DHT22;12384;48.112;18.418;2022-11-20T05:46:27;2.30;99.90
24260;DHT22;12384;48.112;18.418;2022-11-20T05:48:56;2.30;99.90
24260;DHT22;12384;48.112;18.418;2022-11-20T05:51:25;2.30;99.90
24260;DHT22;12384;48.112;18.418;2022-11-20T05:53:56;2.30;99.90
24260;DHT22;12384;48.112;18.418;2022-11-20T05:56:25;2.30;99.90
24260;DHT22;12384;48.112;18.418;2022-11-20T05:58:53;2.30;99.90
24260;DHT22;12384;48.112;18.418;2022-11-20T06:01:23;2.30;99.90
24260;DHT22;12384;48.112;18.418;2022-11-20T06:03:54;2.30;99.90
24260;DHT22;12384;48.112;18.418;2022-11-20T06:06:23;2.30;99.90
24260;DHT22;12384;48.112;18.418;2022-11-20T06:08:52;2.30;99.90
24260;DHT22;12384;48.112;18.418;2022-11-20T06:11:20;2.40;99.90
24260;DHT22;12384;48.112;18.418;2022-11-20T06:13:49;2.40;99.90
24260;DHT22;12384;48.112;18.418;2022-11-20T06:16:19;2.40;99.90
24260;DHT22;12384;48.112;18.418;2022-11-20T06:18:49;2.40;99.90
24260;DHT22;12384;48.112;18.418;2022-11-20T06:21:20;2.40;99.90
24260;DHT22;12384;48.112;18.418;2022-11-20T06:23:50;2.50;99.90
24260;DHT22;12384;48.112;18.418;2022-11-20T06:26:20;2.50;99.90
24260;DHT22;12384;48.112;18.418;2022-11-20T06:28:49;2.50;99.90
24260;DHT22;12384;48.112;18.418;2022-11-20T06:31:19;2.50;99.90
24260;DHT22;12384;48.112;18.418;2022-11-20T06:33:48;2.60;99.90
24260;DHT22;12384;48.112;18.418;2022-11-20T06:36:20;2.60;99.90
24260;DHT22;12384;48.112;18.418;2022-11-20T06:38:49;2.60;99.90
24260;DHT22;12384;48.112;18.418;2022-11-20T06:41:19;2.70;99.90
24260;DHT22;12384;48.112;18.418;2022-11-20T06:43:48;2.70;99.90
24260;DHT22;12384;48.112;18.418;2022-11-20T06:46:17;2.70;99.90
24260;DHT22;12384;48.112;18.418;2022-11-20T06:48:47;2.70;99.90
24260;DHT22;12384;48.112;18.418;2022-11-20T06:51:16;2.80;99.90
24260;DHT22;12384;48.112;18.418;2022-11-20T06:53:45;2.80;99.90
24260;DHT22;12384;48.112;18.418;2022-11-20T06:56:14;2.90;99.90
24260;DHT22;12384;48.112;18.418;2022-11-20T06:58:42;2.90;99.90
24260;DHT22;12384;48.112;18.418;2022-11-20T07:01:12;3.00;99.90
24260;DHT22;12384;48.112;18.418;2022-11-20T07:03:41;3.00;99.90
24260;DHT22;12384;48.112;18.418;2022-11-20T07:06:10;3.10;99.90
24260;DHT22;12384;48.112;18.418;2022-11-20T07:08:38;3.10;99.90
24260;DHT22;12384;48.112;18.418;2022-11-20T07:11:12;3.10;99.90
24260;DHT22;12384;48.112;18.418;2022-11-20T07:13:40;3.20;99.90
24260;DHT22;12384;48.112;18.418;2022-11-20T07:16:09;3.20;99.90
24260;DHT22;12384;48.112;18.418;2022-11-20T07:18:37;3.30;99.90
24260;DHT22;12384;48.112;18.418;2022-11-20T07:21:07;3.30;99.90
24260;DHT22;12384;48.112;18.418;2022-11-20T07:23:37;3.30;99.90
24260;DHT22;12384;48.112;18.418;2022-11-20T07:26:06;3.30;99.80
24260;DHT22;12384;48.112;18.418;2022-11-20T07:28:36;3.40;99.60
24260;DHT22;12384;48.112;18.418;2022-11-20T07:31:05;3.40;99.50
24260;DHT22;12384;48.112;18.418;2022-11-20T07:33:34;3.40;99.60
24260;DHT22;12384;48.112;18.418;2022-11-20T07:36:03;3.50;99.20
24260;DHT22;12384;48.112;18.418;2022-11-20T07:38:31;3.50;99.20
24260;DHT22;12384;48.112;18.418;2022-11-20T07:41:00;3.60;99.40
24260;DHT22;12384;48.112;18.418;2022-11-20T07:43:28;3.60;99.40
24260;DHT22;12384;48.112;18.418;2022-11-20T07:45:59;3.60;99.50
24260;DHT22;12384;48.112;18.418;2022-11-20T07:48:28;3.70;99.50
24260;DHT22;12384;48.112;18.418;2022-11-20T07:50:56;3.70;99.50
24260;DHT22;12384;48.112;18.418;2022-11-20T07:53:25;3.80;99.60
24260;DHT22;12384;48.112;18.418;2022-11-20T07:55:53;3.80;99.70
24260;DHT22;12384;48.112;18.418;2022-11-20T07:58:21;3.90;99.80
24260;DHT22;12384;48.112;18.418;2022-11-20T08:00:50;4.00;99.90
24260;DHT22;12384;48.112;18.418;2022-11-20T08:03:19;4.00;99.80
24260;DHT22;12384;48.112;18.418;2022-11-20T08:05:51;4.10;99.90
24260;DHT22;12384;48.112;18.418;2022-11-20T08:08:20;4.10;99.80
24260;DHT22;12384;48.112;18.418;2022-11-20T08:10:48;4.20;99.90
24260;DHT22;12384;48.112;18.418;2022-11-20T08:13:17;4.20;99.90
24260;DHT22;12384;48.112;18.418;2022-11-20T08:16:03;4.30;99.90
24260;DHT22;12384;48.112;18.418;2022-11-20T08:18:32;4.40;99.90
24260;DHT22;12384;48.112;18.418;2022-11-20T08:21:02;4.50;99.90
24260;DHT22;12384;48.112;18.418;2022-11-20T08:23:31;4.50;99.90
24260;DHT22;12384;48.112;18.418;2022-11-20T08:26:00;4.60;99.90
24260;DHT22;12384;48.112;18.418;2022-11-20T08:28:28;4.70;99.80
24260;DHT22;12384;48.112;18.418;2022-11-20T08:30:58;4.70;99.70
24260;DHT22;12384;48.112;18.418;2022-11-20T08:33:27;4.80;99.60
24260;DHT22;12384;48.112;18.418;2022-11-20T08:36:00;4.90;99.60
24260;DHT22;12384;48.112;18.418;2022-11-20T08:38:29;5.00;99.70
24260;DHT22;12384;48.112;18.418;2022-11-20T08:40:58;5.10;99.80
24260;DHT22;12384;48.112;18.418;2022-11-20T08:43:44;5.10;99.70
24260;DHT22;12384;48.112;18.418;2022-11-20T08:46:12;5.30;99.70
24260;DHT22;12384;48.112;18.418;2022-11-20T08:48:41;5.40;99.70
24260;DHT22;12384;48.112;18.418;2022-11-20T08:51:11;5.50;99.40
24260;DHT22;12384;48.112;18.418;2022-11-20T08:53:41;5.60;99.50
24260;DHT22;12384;48.112;18.418;2022-11-20T08:56:09;5.80;99.70
24260;DHT22;12384;48.112;18.418;2022-11-20T08:58:38;6.00;99.70
24260;DHT22;12384;48.112;18.418;2022-11-20T09:01:27;6.10;99.70
24260;DHT22;12384;48.112;18.418;2022-11-20T09:03:56;6.30;99.80
24260;DHT22;12384;48.112;18.418;2022-11-20T09:06:26;6.50;99.70
24260;DHT22;12384;48.112;18.418;2022-11-20T09:08:54;6.70;99.30
24260;DHT22;12384;48.112;18.418;2022-11-20T09:11:31;6.80;98.70
24260;DHT22;12384;48.112;18.418;2022-11-20T09:13:59;7.00;97.60
24260;DHT22;12384;48.112;18.418;2022-11-20T09:16:29;7.10;96.40
24260;DHT22;12384;48.112;18.418;2022-11-20T09:18:58;7.10;95.30
24260;DHT22;12384;48.112;18.418;2022-11-20T09:21:48;7.20;94.30
24260;DHT22;12384;48.112;18.418;2022-11-20T09:24:16;7.30;93.10
24260;DHT22;12384;48.112;18.418;2022-11-20T09:26:45;7.30;91.70
24260;DHT22;12384;48.112;18.418;2022-11-20T09:29:13;7.30;90.90
24260;DHT22;12384;48.112;18.418;2022-11-20T09:31:41;7.30;89.80
24260;DHT22;12384;48.112;18.418;2022-11-20T09:34:10;7.30;87.80
24260;DHT22;12384;48.112;18.418;2022-11-20T09:36:38;7.30;86.50
24260;DHT22;12384;48.112;18.418;2022-11-20T09:39:08;7.30;85.20
24260;DHT22;12384;48.112;18.418;2022-11-20T09:44:57;7.30;82.10
24260;DHT22;12384;48.112;18.418;2022-11-20T09:47:37;7.30;81.50
24260;DHT22;12384;48.112;18.418;2022-11-20T09:50:21;7.20;80.70
24260;DHT22;12384;48.112;18.418;2022-11-20T09:53:08;7.20;80.50
24260;DHT22;12384;48.112;18.418;2022-11-20T09:55:40;7.20;79.80
24260;DHT22;12384;48.112;18.418;2022-11-20T09:58:18;7.20;79.20
24260;DHT22;12384;48.112;18.418;2022-11-20T10:00:49;7.20;78.50
24260;DHT22;12384;48.112;18.418;2022-11-20T10:03:23;7.20;77.70
24260;DHT22;12384;48.112;18.418;2022-11-20T10:05:55;7.20;76.90
24260;DHT22;12384;48.112;18.418;2022-11-20T10:08:27;7.10;76.10
24260;DHT22;12384;48.112;18.418;2022-11-20T10:11:05;7.10;75.60
24260;DHT22;12384;48.112;18.418;2022-11-20T10:13:42;7.00;75.00
24260;DHT22;12384;48.112;18.418;2022-11-20T10:16:22;7.00;75.00
24260;DHT22;12384;48.112;18.418;2022-11-20T10:19:05;7.00;75.30
24260;DHT22;12384;48.112;18.418;2022-11-20T10:21:46;7.00;76.00
24260;DHT22;12384;48.112;18.418;2022-11-20T10:24:41;7.00;77.30
24260;DHT22;12384;48.112;18.418;2022-11-20T10:27:34;7.20;79.20
24260;DHT22;12384;48.112;18.418;2022-11-20T10:30:09;7.40;81.70
24260;DHT22;12384;48.112;18.418;2022-11-20T10:32:40;7.70;83.10
24260;DHT22;12384;48.112;18.418;2022-11-20T10:35:20;7.90;83.10
24260;DHT22;12384;48.112;18.418;2022-11-20T10:37:55;8.10;81.50
24260;DHT22;12384;48.112;18.418;2022-11-20T10:40:31;8.30;80.40
24260;DHT22;12384;48.112;18.418;2022-11-20T10:43:09;8.50;78.70
24260;DHT22;12384;48.112;18.418;2022-11-20T10:45:56;8.70;76.70
24260;DHT22;12384;48.112;18.418;2022-11-20T10:48:26;8.80;74.80
24260;DHT22;12384;48.112;18.418;2022-11-20T10:51:15;8.80;73.10
24260;DHT22;12384;48.112;18.418;2022-11-20T10:53:59;8.90;71.40
24260;DHT22;12384;48.112;18.418;2022-11-20T10:56:38;8.90;70.10
24260;DHT22;12384;48.112;18.418;2022-11-20T10:59:45;8.80;69.20
24260;DHT22;12384;48.112;18.418;2022-11-20T11:02:22;8.80;68.00
24260;DHT22;12384;48.112;18.418;2022-11-20T11:04:51;8.70;67.30
24260;DHT22;12384;48.112;18.418;2022-11-20T11:07:23;8.60;66.90
24260;DHT22;12384;48.112;18.418;2022-11-20T11:09:54;8.60;66.90
24260;DHT22;12384;48.112;18.418;2022-11-20T11:12:24;8.60;66.50
24260;DHT22;12384;48.112;18.418;2022-11-20T11:14:56;8.60;66.10
24260;DHT22;12384;48.112;18.418;2022-11-20T11:17:28;8.50;65.70
24260;DHT22;12384;48.112;18.418;2022-11-20T11:20:05;8.50;65.40
24260;DHT22;12384;48.112;18.418;2022-11-20T11:22:43;8.40;65.20
24260;DHT22;12384;48.112;18.418;2022-11-20T11:25:25;8.40;64.70
24260;DHT22;12384;48.112;18.418;2022-11-20T11:27:55;8.30;64.60
24260;DHT22;12384;48.112;18.418;2022-11-20T11:30:27;8.20;64.40
24260;DHT22;12384;48.112;18.418;2022-11-20T11:33:04;8.10;64.40
24260;DHT22;12384;48.112;18.418;2022-11-20T11:35:38;8.10;64.80
24260;DHT22;12384;48.112;18.418;2022-11-20T11:38:23;8.10;65.80
24260;DHT22;12384;48.112;18.418;2022-11-20T11:40:55;8.20;67.70
24260;DHT22;12384;48.112;18.418;2022-11-20T11:43:26;8.50;71.50
24260;DHT22;12384;48.112;18.418;2022-11-20T11:46:28;9.10;72.70
24260;DHT22;12384;48.112;18.418;2022-11-20T11:48:58;9.90;69.20
24260;DHT22;12384;48.112;18.418;2022-11-20T11:51:33;10.60;66.70
24260;DHT22;12384;48.112;18.418;2022-11-20T11:54:20;11.20;64.10
24260;DHT22;12384;48.112;18.418;2022-11-20T11:56:51;11.60;62.60
24260;DHT22;12384;48.112;18.418;2022-11-20T11:59:26;12.10;59.60
24260;DHT22;12384;48.112;18.418;2022-11-20T12:01:59;12.40;58.80
24260;DHT22;12384;48.112;18.418;2022-11-20T12:04:40;12.60;57.50
24260;DHT22;12384;48.112;18.418;2022-11-20T12:07:15;12.80;57.00
24260;DHT22;12384;48.112;18.418;2022-11-20T12:10:08;13.00;56.10
24260;DHT22;12384;48.112;18.418;2022-11-20T12:12:43;13.10;55.20
24260;DHT22;12384;48.112;18.418;2022-11-20T12:15:26;13.20;54.40
24260;DHT22;12384;48.112;18.418;2022-11-20T12:17:58;13.40;54.00
24260;DHT22;12384;48.112;18.418;2022-11-20T12:20:30;13.60;54.40
24260;DHT22;12384;48.112;18.418;2022-11-20T12:23:05;14.00;54.10
24260;DHT22;12384;48.112;18.418;2022-11-20T12:25:38;14.40;53.10
24260;DHT22;12384;48.112;18.418;2022-11-20T12:28:30;14.60;52.00
24260;DHT22;12384;48.112;18.418;2022-11-20T12:31:24;14.70;51.90
24260;DHT22;12384;48.112;18.418;2022-11-20T12:34:03;14.90;51.40
24260;DHT22;12384;48.112;18.418;2022-11-20T12:36:39;15.00;50.60
24260;DHT22;12384;48.112;18.418;2022-11-20T12:39:36;15.20;50.20
24260;DHT22;12384;48.112;18.418;2022-11-20T12:42:22;15.30;49.10
24260;DHT22;12384;48.112;18.418;2022-11-20T12:48:34;15.80;48.10
24260;DHT22;12384;48.112;18.418;2022-11-20T12:51:23;15.90;47.20
24260;DHT22;12384;48.112;18.418;2022-11-20T12:54:04;15.90;46.80
24260;DHT22;12384;48.112;18.418;2022-11-20T12:56:41;15.90;46.60
24260;DHT22;12384;48.112;18.418;2022-11-20T12:59:24;16.10;46.80
24260;DHT22;12384;48.112;18.418;2022-11-20T13:02:02;16.20;46.10
24260;DHT22;12384;48.112;18.418;2022-11-20T13:04:54;16.10;45.30
24260;DHT22;12384;48.112;18.418;2022-11-20T13:07:30;16.00;45.10
24260;DHT22;12384;48.112;18.418;2022-11-20T13:10:00;15.80;44.80
24260;DHT22;12384;48.112;18.418;2022-11-20T13:12:36;15.40;44.10
24260;DHT22;12384;48.112;18.418;2022-11-20T13:15:18;15.00;43.90
24260;DHT22;12384;48.112;18.418;2022-11-20T13:17:54;14.50;44.20
24260;DHT22;12384;48.112;18.418;2022-11-20T13:20:24;14.10;45.00
24260;DHT22;12384;48.112;18.418;2022-11-20T13:22:55;13.80;45.70
24260;DHT22;12384;48.112;18.418;2022-11-20T13:25:26;13.80;46.40
24260;DHT22;12384;48.112;18.418;2022-11-20T13:27:56;13.90;47.00
24260;DHT22;12384;48.112;18.418;2022-11-20T13:30:25;14.10;47.10
24260;DHT22;12384;48.112;18.418;2022-11-20T13:32:55;14.20;47.00
24260;DHT22;12384;48.112;18.418;2022-11-20T13:35:27;14.40;46.90
24260;DHT22;12384;48.112;18.418;2022-11-20T13:38:06;14.60;46.60
24260;DHT22;12384;48.112;18.418;2022-11-20T13:40:37;14.80;45.90
24260;DHT22;12384;48.112;18.418;2022-11-20T13:43:20;14.90;45.80
24260;DHT22;12384;48.112;18.418;2022-11-20T13:45:59;15.00;44.90
24260;DHT22;12384;48.112;18.418;2022-11-20T13:48:31;14.70;44.20
24260;DHT22;12384;48.112;18.418;2022-11-20T13:51:14;14.40;43.90
24260;DHT22;12384;48.112;18.418;2022-11-20T13:54:03;13.90;43.80
24260;DHT22;12384;48.112;18.418;2022-11-20T13:56:44;13.40;43.90
24260;DHT22;12384;48.112;18.418;2022-11-20T13:59:30;12.90;44.30
24260;DHT22;12384;48.112;18.418;2022-11-20T14:02:02;12.50;44.90
24260;DHT22;12384;48.112;18.418;2022-11-20T14:04:34;12.00;45.30
24260;DHT22;12384;48.112;18.418;2022-11-20T14:07:05;11.60;45.60
24260;DHT22;12384;48.112;18.418;2022-11-20T14:09:35;11.30;46.00
24260;DHT22;12384;48.112;18.418;2022-11-20T14:12:17;11.00;46.20
24260;DHT22;12384;48.112;18.418;2022-11-20T14:14:50;10.60;46.20
24260;DHT22;12384;48.112;18.418;2022-11-20T14:17:22;10.30;46.50
24260;DHT22;12384;48.112;18.418;2022-11-20T14:19:52;10.00;46.60
24260;DHT22;12384;48.112;18.418;2022-11-20T14:22:23;9.70;47.70
24260;DHT22;12384;48.112;18.418;2022-11-20T14:25:05;9.40;47.90
24260;DHT22;12384;48.112;18.418;2022-11-20T14:27:36;9.10;48.10
24260;DHT22;12384;48.112;18.418;2022-11-20T14:30:06;8.90;48.40
24260;DHT22;12384;48.112;18.418;2022-11-20T14:32:41;8.60;48.50
24260;DHT22;12384;48.112;18.418;2022-11-20T14:35:16;8.40;48.70
24260;DHT22;12384;48.112;18.418;2022-11-20T14:37:46;8.20;48.90
24260;DHT22;12384;48.112;18.418;2022-11-20T14:40:28;7.90;49.00
24260;DHT22;12384;48.112;18.418;2022-11-20T14:42:58;7.70;49.30
24260;DHT22;12384;48.112;18.418;2022-11-20T14:45:27;7.40;49.40
24260;DHT22;12384;48.112;18.418;2022-11-20T14:47:57;7.30;49.60
24260;DHT22;12384;48.112;18.418;2022-11-20T14:50:27;7.00;49.80
24260;DHT22;12384;48.112;18.418;2022-11-20T14:52:57;6.90;50.10
24260;DHT22;12384;48.112;18.418;2022-11-20T14:55:30;6.70;50.30
24260;DHT22;12384;48.112;18.418;2022-11-20T14:58:00;6.60;50.50
24260;DHT22;12384;48.112;18.418;2022-11-20T15:00:31;6.40;50.60
24260;DHT22;12384;48.112;18.418;2022-11-20T15:02:59;6.30;50.90
24260;DHT22;12384;48.112;18.418;2022-11-20T15:05:46;6.10;50.90
24260;DHT22;12384;48.112;18.418;2022-11-20T15:08:16;6.00;51.10
24260;DHT22;12384;48.112;18.418;2022-11-20T15:10:50;5.90;51.30
24260;DHT22;12384;48.112;18.418;2022-11-20T15:13:26;5.70;51.30
24260;DHT22;12384;48.112;18.418;2022-11-20T15:15:58;5.60;51.50
24260;DHT22;12384;48.112;18.418;2022-11-20T15:18:29;5.40;51.60
24260;DHT22;12384;48.112;18.418;2022-11-20T15:21:01;5.30;52.90
24260;DHT22;12384;48.112;18.418;2022-11-20T15:23:30;5.20;53.40
24260;DHT22;12384;48.112;18.418;2022-11-20T15:26:00;5.10;53.40
24260;DHT22;12384;48.112;18.418;2022-11-20T15:28:31;5.00;53.20
24260;DHT22;12384;48.112;18.418;2022-11-20T15:31:00;4.80;53.20
24260;DHT22;12384;48.112;18.418;2022-11-20T15:33:30;4.70;53.40
24260;DHT22;12384;48.112;18.418;2022-11-20T15:35:59;4.60;53.80
24260;DHT22;12384;48.112;18.418;2022-11-20T15:38:27;4.50;54.20
24260;DHT22;12384;48.112;18.418;2022-11-20T15:40:56;4.40;54.20
24260;DHT22;12384;48.112;18.418;2022-11-20T15:43:26;4.40;54.30
24260;DHT22;12384;48.112;18.418;2022-11-20T15:45:59;4.30;54.70
24260;DHT22;12384;48.112;18.418;2022-11-20T15:48:29;4.20;55.00
24260;DHT22;12384;48.112;18.418;2022-11-20T15:51:02;4.10;54.90
24260;DHT22;12384;48.112;18.418;2022-11-20T15:53:31;4.00;54.80
24260;DHT22;12384;48.112;18.418;2022-11-20T15:56:00;3.90;55.30
24260;DHT22;12384;48.112;18.418;2022-11-20T15:58:29;3.80;55.10
24260;DHT22;12384;48.112;18.418;2022-11-20T16:00:58;3.70;55.80
24260;DHT22;12384;48.112;18.418;2022-11-20T16:03:26;3.70;55.50
24260;DHT22;12384;48.112;18.418;2022-11-20T16:05:54;3.60;55.50